Time;durP1;ratioP1;P1;durP2;ratioP2;P2;SDS_P1;SDS_P2;PMS_P1;PMS_P2;Temp;Humidity;BMP_temperature;BMP_pressure;BME280_temperature;BME280_humidity;BME280_pressure;Samples;Min_cycle;Max_cycle;Signal;HPM_P1;HPM_P2
2021/07/05 00:00:17;;;;;;;2.33;1.40;;;;;;;;;;4995992;28;20050;-76
2021/07/05 00:02:43;;;;;;;3.08;1.42;;;;;;;;;;5014056;28;20018;-77
2021/07/05 00:05:09;;;;;;;4.22;1.65;;;;;;;;;;5013655;28;20077;-76
2021/07/05 00:07:35;;;;;;;3.78;1.45;;;;;;;;;;5014309;28;20517;-77
2021/07/05 00:10:04;;;;;;;4.10;1.67;;;;;;;;;;5013687;28;20033;-77
2021/07/05 00:12:30;;;;;;;6.28;1.80;;;;;;;;;;4996372;28;20034;-76
2021/07/05 00:14:56;;;;;;;2.50;1.60;;;;;;;;;;5013949;28;20128;-76
2021/07/05 00:17:22;;;;;;;6.45;1.70;;;;;;;;;;4996298;28;20029;-76
2021/07/05 00:19:48;;;;;;;5.57;1.88;;;;;;;;;;5012914;28;20061;-76
2021/07/05 00:22:14;;;;;;;4.78;1.50;;;;;;;;;;5012623;28;20061;-77
2021/07/05 00:24:40;;;;;;;7.82;1.77;;;;;;;;;;5013898;28;20054;-76
2021/07/05 00:27:07;;;;;;;5.50;1.70;;;;;;;;;;5014260;28;20034;-75
2021/07/05 00:29:33;;;;;;;5.57;1.42;;;;;;;;;;4995952;28;20157;-77
2021/07/05 00:31:59;;;;;;;4.55;1.27;;;;;;;;;;4995949;28;20056;-77
2021/07/05 00:34:25;;;;;;;2.40;1.45;;;;;;;;;;5014542;28;20481;-77
2021/07/05 00:36:51;;;;;;;3.30;1.55;;;;;;;;;;5013789;28;20095;-77
2021/07/05 00:39:17;;;;;;;2.95;1.40;;;;;;;;;;5017057;28;20030;-77
2021/07/05 00:41:43;;;;;;;5.95;1.92;;;;;;;;;;5013034;28;20396;-77
2021/07/05 00:44:09;;;;;;;4.93;1.55;;;;;;;;;;5013179;28;20025;-77
2021/07/05 00:46:35;;;;;;;3.83;1.83;;;;;;;;;;5019730;28;20422;-77
2021/07/05 00:49:01;;;;;;;5.47;2.08;;;;;;;;;;5013839;28;20029;-76
2021/07/05 00:51:27;;;;;;;4.30;2.08;;;;;;;;;;5013466;28;20037;-77
2021/07/05 00:53:54;;;;;;;7.53;1.88;;;;;;;;;;5014022;28;20034;-77
2021/07/05 00:56:21;;;;;;;5.38;2.20;;;;;;;;;;5012516;28;20040;-77
2021/07/05 00:58:47;;;;;;;6.63;1.92;;;;;;;;;;5012738;28;20465;-77
2021/07/05 01:01:13;;;;;;;3.22;2.30;;;;;;;;;;4994883;28;20029;-77
2021/07/05 01:03:39;;;;;;;6.60;1.92;;;;;;;;;;5012858;28;20076;-77
2021/07/05 01:06:05;;;;;;;6.30;1.80;;;;;;;;;;5011771;28;20072;-77
2021/07/05 01:08:31;;;;;;;6.57;1.80;;;;;;;;;;5013932;28;20117;-78
2021/07/05 01:10:57;;;;;;;4.50;1.73;;;;;;;;;;5014771;28;20054;-77
2021/07/05 01:13:23;;;;;;;3.67;1.90;;;;;;;;;;5014560;28;20411;-77
2021/07/05 01:15:49;;;;;;;4.47;1.83;;;;;;;;;;5018657;28;20040;-78
2021/07/05 01:18:15;;;;;;;5.05;1.80;;;;;;;;;;5015135;28;20109;-77
2021/07/05 01:20:42;;;;;;;2.47;1.65;;;;;;;;;;5014770;28;20026;-78
2021/07/05 01:23:08;;;;;;;9.18;1.85;;;;;;;;;;5015420;28;20032;-77
2021/07/05 01:25:35;;;;;;;7.45;1.90;;;;;;;;;;5013936;28;20026;-78
2021/07/05 01:28:01;;;;;;;2.83;1.90;;;;;;;;;;4997931;28;20026;-78
2021/07/05 01:30:28;;;;;;;3.42;2.35;;;;;;;;;;5015926;28;20030;-78
2021/07/05 01:32:59;;;;;;;4.07;1.90;;;;;;;;;;5015766;28;20533;-78
2021/07/05 01:35:25;;;;;;;4.40;1.90;;;;;;;;;;4998117;28;20120;-78
2021/07/05 01:37:51;;;;;;;4.95;1.65;;;;;;;;;;5015250;28;20026;-78
2021/07/05 01:40:18;;;;;;;5.60;1.80;;;;;;;;;;4996116;28;20102;-78
2021/07/05 01:42:49;;;;;;;3.30;1.88;;;;;;;;;;4997081;28;20023;-78
2021/07/05 01:45:15;;;;;;;2.72;1.75;;;;;;;;;;5016811;28;20095;-78
2021/07/05 01:47:41;;;;;;;5.30;1.83;;;;;;;;;;5014862;28;20487;-78
2021/07/05 01:50:08;;;;;;;4.28;1.55;;;;;;;;;;5014152;28;20048;-78
2021/07/05 01:52:34;;;;;;;4.70;1.65;;;;;;;;;;5015046;28;20034;-78
2021/07/05 01:55:00;;;;;;;3.88;1.85;;;;;;;;;;5015001;28;20113;-78
2021/07/05 01:57:26;;;;;;;5.55;2.03;;;;;;;;;;5013065;28;20070;-77
2021/07/05 01:59:56;;;;;;;5.03;1.80;;;;;;;;;;5014654;28;20514;-78
2021/07/05 02:02:22;;;;;;;3.15;1.75;;;;;;;;;;5014612;28;20036;-78
2021/07/05 02:04:48;;;;;;;7.18;2.00;;;;;;;;;;5014262;28;20030;-78
2021/07/05 02:07:15;;;;;;;5.53;2.17;;;;;;;;;;5014692;28;20550;-78
2021/07/05 02:09:41;;;;;;;3.80;1.88;;;;;;;;;;5013757;28;20045;-78
2021/07/05 02:12:07;;;;;;;4.65;2.33;;;;;;;;;;5014120;28;20034;-78
2021/07/05 02:14:33;;;;;;;6.85;2.45;;;;;;;;;;5016465;28;20030;-78
2021/07/05 02:16:59;;;;;;;9.45;3.05;;;;;;;;;;5019220;28;20038;-78
2021/07/05 02:19:25;;;;;;;5.38;2.45;;;;;;;;;;5018038;28;20121;-78
2021/07/05 02:21:51;;;;;;;5.57;2.00;;;;;;;;;;5018588;28;20032;-78
2021/07/05 02:24:18;;;;;;;3.58;2.00;;;;;;;;;;5018208;28;20025;-78
2021/07/05 02:26:44;;;;;;;7.32;2.47;;;;;;;;;;5017632;28;20126;-78
2021/07/05 02:29:10;;;;;;;10.25;2.47;;;;;;;;;;5016838;28;20021;-78
2021/07/05 02:31:36;;;;;;;15.50;4.07;;;;;;;;;;5014919;28;20105;-79
2021/07/05 02:34:03;;;;;;;5.75;2.13;;;;;;;;;;5015091;28;20033;-78
2021/07/05 02:36:29;;;;;;;5.22;2.20;;;;;;;;;;5015135;28;20026;-78
2021/07/05 02:38:55;;;;;;;7.25;2.50;;;;;;;;;;5014328;28;20033;-79
2021/07/05 02:41:21;;;;;;;5.53;2.33;;;;;;;;;;5014534;28;20421;-77
2021/07/05 02:43:47;;;;;;;4.03;2.25;;;;;;;;;;5014921;28;20028;-78
2021/07/05 02:46:13;;;;;;;8.48;2.80;;;;;;;;;;5017759;28;20087;-78
2021/07/05 02:48:41;;;;;;;5.35;2.50;;;;;;;;;;5014717;28;20513;-78
2021/07/05 02:51:08;;;;;;;8.10;2.30;;;;;;;;;;5013465;28;20033;-78
2021/07/05 02:53:34;;;;;;;5.72;3.05;;;;;;;;;;5014697;28;20029;-78
2021/07/05 02:56:00;;;;;;;4.95;2.35;;;;;;;;;;5014233;28;20461;-78
2021/07/05 02:58:26;;;;;;;6.43;2.63;;;;;;;;;;5014603;28;20081;-78
2021/07/05 03:00:54;;;;;;;3.72;2.45;;;;;;;;;;5013980;28;20105;-78
2021/07/05 03:03:20;;;;;;;5.28;2.80;;;;;;;;;;5014615;28;20022;-78
2021/07/05 03:05:46;;;;;;;7.07;2.83;;;;;;;;;;5014245;28;20076;-78
2021/07/05 03:08:12;;;;;;;6.45;2.45;;;;;;;;;;5014893;28;20033;-78
2021/07/05 03:10:39;;;;;;;10.63;8.20;;;;;;;;;;5013821;28;20030;-78
2021/07/05 03:13:06;;;;;;;17.52;7.13;;;;;;;;;;5013594;28;20096;-78
2021/07/05 03:15:32;;;;;;;5.93;3.50;;;;;;;;;;5003678;28;20554;-79
2021/07/05 03:17:58;;;;;;;6.57;2.55;;;;;;;;;;5014955;28;20065;-78
2021/07/05 03:20:29;;;;;;;5.60;2.70;;;;;;;;;;4996249;28;20049;-78
2021/07/05 03:22:56;;;;;;;5.97;2.50;;;;;;;;;;5014601;28;20034;-78
2021/07/05 03:25:23;;;;;;;12.75;3.13;;;;;;;;;;5014142;28;20105;-78
2021/07/05 03:27:49;;;;;;;9.82;2.92;;;;;;;;;;5013717;28;20098;-78
2021/07/05 03:30:17;;;;;;;9.20;2.80;;;;;;;;;;5014574;28;20041;-78
2021/07/05 03:32:43;;;;;;;8.00;2.40;;;;;;;;;;5014500;28;20092;-78
2021/07/05 03:35:10;;;;;;;4.07;2.40;;;;;;;;;;5013846;28;20029;-78
2021/07/05 03:37:37;;;;;;;5.00;2.90;;;;;;;;;;5016791;28;20062;-79
2021/07/05 03:40:04;;;;;;;3.50;2.58;;;;;;;;;;5016838;28;20018;-78
2021/07/05 03:42:30;;;;;;;2.88;2.03;;;;;;;;;;5017131;28;20030;-79
2021/07/05 03:44:56;;;;;;;4.68;2.40;;;;;;;;;;5015480;28;20036;-78
2021/07/05 03:47:22;;;;;;;4.45;2.28;;;;;;;;;;5019654;28;20030;-78
2021/07/05 03:49:48;;;;;;;5.00;1.90;;;;;;;;;;5013766;28;20114;-77
2021/07/05 03:52:14;;;;;;;3.88;2.50;;;;;;;;;;5013900;28;20034;-78
2021/07/05 03:54:40;;;;;;;5.30;2.47;;;;;;;;;;5013589;28;20038;-78
2021/07/05 03:57:21;;;;;;;6.47;2.47;;;;;;;;;;5013715;28;20089;-77
2021/07/05 03:59:47;;;;;;;9.52;2.92;;;;;;;;;;5013325;28;20083;-78
2021/07/05 04:02:13;;;;;;;4.97;2.58;;;;;;;;;;5013713;28;20466;-78
2021/07/05 04:04:39;;;;;;;7.53;2.72;;;;;;;;;;5013690;28;20034;-77
2021/07/05 04:07:05;;;;;;;4.57;2.25;;;;;;;;;;5013502;28;20045;-77
2021/07/05 04:09:31;;;;;;;7.88;2.33;;;;;;;;;;5013360;28;20057;-78
2021/07/05 04:11:57;;;;;;;4.88;2.20;;;;;;;;;;5013495;28;20022;-77
2021/07/05 04:14:23;;;;;;;5.00;2.50;;;;;;;;;;5013242;28;20037;-77
2021/07/05 04:16:49;;;;;;;4.65;2.33;;;;;;;;;;5013456;28;20037;-76
2021/07/05 04:19:15;;;;;;;5.15;2.53;;;;;;;;;;5012751;28;20682;-77
2021/07/05 04:21:41;;;;;;;6.75;2.35;;;;;;;;;;5013299;28;20037;-77
2021/07/05 04:24:07;;;;;;;3.47;2.28;;;;;;;;;;5013026;28;20438;-77
2021/07/05 04:26:33;;;;;;;10.73;2.20;;;;;;;;;;4995340;28;20026;-77
2021/07/05 04:28:59;;;;;;;6.68;1.88;;;;;;;;;;5012690;28;20510;-77
2021/07/05 04:31:25;;;;;;;5.90;2.05;;;;;;;;;;5013207;28;20037;-77
2021/07/05 04:33:51;;;;;;;4.80;1.98;;;;;;;;;;5011722;28;20048;-77
2021/07/05 04:36:17;;;;;;;3.63;1.77;;;;;;;;;;5012821;28;20048;-77
2021/07/05 04:38:43;;;;;;;2.38;1.45;;;;;;;;;;4995121;28;20113;-78
2021/07/05 04:43:45;;;;;;;4.18;1.80;;;;;;;;;;5041507;23;20062;-77
2021/07/05 04:46:11;;;;;;;3.78;1.73;;;;;;;;;;4984778;28;20030;-76
2021/07/05 04:48:38;;;;;;;3.58;1.80;;;;;;;;;;4993114;28;20057;-77
2021/07/05 04:51:05;;;;;;;5.28;1.90;;;;;;;;;;4992680;28;20026;-76
2021/07/05 04:53:32;;;;;;;6.80;1.63;;;;;;;;;;4993129;28;20022;-77
2021/07/05 04:55:59;;;;;;;5.10;1.80;;;;;;;;;;4993134;28;20033;-77
2021/07/05 04:58:25;;;;;;;4.60;1.65;;;;;;;;;;4992615;28;20034;-77
2021/07/05 05:00:51;;;;;;;5.28;1.88;;;;;;;;;;4975114;28;20026;-77
2021/07/05 05:03:17;;;;;;;6.38;1.75;;;;;;;;;;4975886;28;20030;-77
2021/07/05 05:05:44;;;;;;;3.83;1.52;;;;;;;;;;4994049;28;20026;-77
2021/07/05 05:08:10;;;;;;;4.32;1.70;;;;;;;;;;4995843;28;20028;-77
2021/07/05 05:10:37;;;;;;;6.53;1.88;;;;;;;;;;5007300;28;20407;-77
2021/07/05 05:13:03;;;;;;;6.20;1.90;;;;;;;;;;5015496;28;20081;-77
2021/07/05 05:15:29;;;;;;;4.18;1.65;;;;;;;;;;5018829;28;20085;-77
2021/07/05 05:17:55;;;;;;;4.40;1.92;;;;;;;;;;5015762;28;20025;-76
2021/07/05 05:20:21;;;;;;;3.10;1.70;;;;;;;;;;4998941;28;20031;-77
2021/07/05 05:22:48;;;;;;;4.57;1.45;;;;;;;;;;4993868;28;20030;-77
2021/07/05 05:25:14;;;;;;;2.45;1.50;;;;;;;;;;4993366;28;20030;-77
2021/07/05 05:27:40;;;;;;;3.95;1.60;;;;;;;;;;4997809;28;20423;-77
2021/07/05 05:30:07;;;;;;;5.25;1.88;;;;;;;;;;5001949;28;20041;-77
2021/07/05 05:32:33;;;;;;;4.30;1.42;;;;;;;;;;5003069;28;20483;-77
2021/07/05 05:34:59;;;;;;;3.10;1.50;;;;;;;;;;4975697;28;20046;-77
2021/07/05 05:37:25;;;;;;;2.50;1.58;;;;;;;;;;4972391;28;20018;-77
2021/07/05 05:39:51;;;;;;;6.65;2.00;;;;;;;;;;4983741;28;20136;-77
2021/07/05 05:42:17;;;;;;;2.30;1.40;;;;;;;;;;4992861;28;20038;-76
2021/07/05 05:44:44;;;;;;;4.05;1.80;;;;;;;;;;4996805;28;20037;-77
2021/07/05 05:47:10;;;;;;;5.60;1.40;;;;;;;;;;4978208;28;20069;-77
2021/07/05 05:49:36;;;;;;;3.15;1.63;;;;;;;;;;4980814;28;20035;-77
2021/07/05 05:52:03;;;;;;;3.33;1.40;;;;;;;;;;4992179;28;20113;-77
2021/07/05 05:54:29;;;;;;;5.43;1.63;;;;;;;;;;4993116;28;20507;-76
2021/07/05 05:56:55;;;;;;;3.38;1.63;;;;;;;;;;4995353;28;20034;-77
2021/07/05 05:59:21;;;;;;;4.18;1.50;;;;;;;;;;4996289;28;20038;-76
2021/07/05 06:01:50;;;;;;;5.97;1.30;;;;;;;;;;4996663;28;20101;-77
2021/07/05 06:04:17;;;;;;;3.70;1.38;;;;;;;;;;4996263;28;20029;-78
2021/07/05 06:06:43;;;;;;;4.25;1.35;;;;;;;;;;4996727;28;20034;-76
2021/07/05 06:09:09;;;;;;;3.78;1.70;;;;;;;;;;4978668;28;20050;-76
2021/07/05 06:11:38;;;;;;;2.72;1.30;;;;;;;;;;4995604;28;20109;-76
2021/07/05 06:14:04;;;;;;;5.38;1.42;;;;;;;;;;4997357;28;20392;-77
2021/07/05 06:16:31;;;;;;;2.25;1.38;;;;;;;;;;4997866;28;20037;-77
2021/07/05 06:18:57;;;;;;;2.42;1.40;;;;;;;;;;4995231;28;20026;-77
2021/07/05 06:21:26;;;;;;;5.85;1.58;;;;;;;;;;4978833;28;20029;-77
2021/07/05 06:23:52;;;;;;;3.30;1.42;;;;;;;;;;4995566;28;20052;-77
2021/07/05 06:26:18;;;;;;;2.20;1.30;;;;;;;;;;4996990;28;20030;-77
2021/07/05 06:28:44;;;;;;;2.95;1.33;;;;;;;;;;4996613;28;20419;-77
2021/07/05 06:31:10;;;;;;;6.70;1.48;;;;;;;;;;5000213;28;20065;-76
2021/07/05 06:33:36;;;;;;;2.85;1.63;;;;;;;;;;4999549;28;20030;-77
2021/07/05 06:36:02;;;;;;;3.08;1.48;;;;;;;;;;4983345;28;20030;-76
2021/07/05 06:38:28;;;;;;;3.15;1.40;;;;;;;;;;4990905;28;20186;-77
2021/07/05 06:40:56;;;;;;;3.53;1.50;;;;;;;;;;4979580;28;20029;-77
2021/07/05 06:43:22;;;;;;;8.85;1.60;;;;;;;;;;4991132;28;20173;-76
2021/07/05 06:45:48;;;;;;;3.25;2.00;;;;;;;;;;5008491;28;20026;-78
2021/07/05 06:48:14;;;;;;;6.20;1.80;;;;;;;;;;5013510;28;20026;-76
2021/07/05 06:50:40;;;;;;;2.72;1.58;;;;;;;;;;4995224;28;20412;-78
2021/07/05 06:53:07;;;;;;;5.20;1.95;;;;;;;;;;4996318;28;20053;-76
2021/07/05 06:55:33;;;;;;;5.22;1.40;;;;;;;;;;4977248;28;20038;-75
2021/07/05 06:58:00;;;;;;;3.67;2.17;;;;;;;;;;4991266;28;20085;-76
2021/07/05 07:00:27;;;;;;;7.07;1.77;;;;;;;;;;4985601;28;20337;-76
2021/07/05 07:02:54;;;;;;;5.13;1.77;;;;;;;;;;4991544;28;20492;-76
2021/07/05 07:05:20;;;;;;;8.02;1.50;;;;;;;;;;4995137;28;20030;-76
2021/07/05 07:07:50;;;;;;;4.28;1.35;;;;;;;;;;4995191;28;20034;-75
2021/07/05 07:10:17;;;;;;;6.85;1.33;;;;;;;;;;4997801;28;20581;-78
2021/07/05 07:12:50;;;;;;;5.07;1.60;;;;;;;;;;4998636;28;20026;-78
2021/07/05 07:15:19;;;;;;;5.85;1.33;;;;;;;;;;5000645;28;20105;-77
2021/07/05 07:20:30;;;;;;;3.10;1.35;;;;;;;;;;4997102;28;20056;-77
2021/07/05 07:22:56;;;;;;;5.70;2.13;;;;;;;;;;4998143;28;20049;-80
2021/07/05 07:25:22;;;;;;;8.95;1.60;;;;;;;;;;4998493;28;20502;-81
2021/07/05 07:27:48;;;;;;;2.45;1.02;;;;;;;;;;4979037;28;20029;-80
2021/07/05 07:30:14;;;;;;;5.15;1.75;;;;;;;;;;4977229;28;20030;-79
2021/07/05 07:32:41;;;;;;;2.75;1.38;;;;;;;;;;4992831;28;20033;-80
2021/07/05 07:35:07;;;;;;;3.78;1.20;;;;;;;;;;4977320;28;20038;-84
2021/07/05 07:37:34;;;;;;;3.17;1.48;;;;;;;;;;4994582;28;20710;-82
2021/07/05 07:40:14;;;;;;;3.20;1.17;;;;;;;;;;4991739;28;20065;-82
2021/07/05 07:42:40;;;;;;;4.07;1.27;;;;;;;;;;4995539;28;20022;-81
2021/07/05 07:45:07;;;;;;;5.15;1.50;;;;;;;;;;4982875;28;20065;-79
2021/07/05 07:47:33;;;;;;;2.10;1.10;;;;;;;;;;5013314;28;20117;-84
2021/07/05 07:49:59;;;;;;;4.53;1.33;;;;;;;;;;4980034;28;20061;-76
2021/07/05 07:52:28;;;;;;;2.92;1.42;;;;;;;;;;4990155;28;20558;-80
2021/07/05 07:54:54;;;;;;;2.47;1.10;;;;;;;;;;4993514;28;20026;-79
2021/07/05 07:57:20;;;;;;;2.97;1.13;;;;;;;;;;4992751;28;20035;-79
2021/07/05 07:59:46;;;;;;;3.13;1.27;;;;;;;;;;4972405;28;20439;-77
2021/07/05 08:02:12;;;;;;;2.47;1.25;;;;;;;;;;4992735;28;20025;-81
2021/07/05 08:04:39;;;;;;;4.10;1.45;;;;;;;;;;5000338;28;20113;-80
2021/07/05 08:07:05;;;;;;;3.10;1.23;;;;;;;;;;4973626;28;20030;-76
2021/07/05 08:09:31;;;;;;;3.03;1.20;;;;;;;;;;4991933;28;20045;-75
2021/07/05 08:11:57;;;;;;;7.82;1.48;;;;;;;;;;4992133;28;20035;-78
2021/07/05 08:14:23;;;;;;;1.55;1.00;;;;;;;;;;4995160;28;20367;-78
2021/07/05 08:16:49;;;;;;;7.07;1.20;;;;;;;;;;4992306;28;20034;-78
2021/07/05 08:19:16;;;;;;;3.28;0.82;;;;;;;;;;5008124;28;20038;-80
2021/07/05 08:21:42;;;;;;;4.18;1.67;;;;;;;;;;4981576;28;20034;-80
2021/07/05 08:24:11;;;;;;;4.57;1.30;;;;;;;;;;4982276;28;20031;-83
2021/07/05 08:26:37;;;;;;;3.42;1.17;;;;;;;;;;4980895;28;20023;-78
2021/07/05 08:29:04;;;;;;;3.53;1.23;;;;;;;;;;4990213;28;20407;-78
2021/07/05 08:31:30;;;;;;;9.27;1.05;;;;;;;;;;4994072;28;20041;-77
2021/07/05 08:33:56;;;;;;;6.20;1.38;;;;;;;;;;4973998;28;20023;-83
2021/07/05 08:36:23;;;;;;;2.08;0.93;;;;;;;;;;4976840;28;20030;-80
2021/07/05 08:38:49;;;;;;;1.35;1.00;;;;;;;;;;4982443;28;20041;-82
2021/07/05 08:41:15;;;;;;;3.40;1.20;;;;;;;;;;4998846;28;20026;-80
2021/07/05 08:43:42;;;;;;;0.82;0.60;;;;;;;;;;5000559;28;20479;-78
2021/07/05 08:46:09;;;;;;;3.42;0.93;;;;;;;;;;5016996;28;20037;-80
2021/07/05 08:48:39;;;;;;;1.60;1.10;;;;;;;;;;5019420;28;20324;-78
2021/07/05 08:51:07;;;;;;;5.03;0.80;;;;;;;;;;5004375;28;20030;-78
2021/07/05 08:53:33;;;;;;;2.60;0.75;;;;;;;;;;4990079;28;20037;-80
2021/07/05 08:55:59;;;;;;;4.50;1.00;;;;;;;;;;5007870;28;20031;-78
2021/07/05 08:58:25;;;;;;;2.10;0.90;;;;;;;;;;4990271;28;20507;-78
2021/07/05 09:00:51;;;;;;;4.15;0.70;;;;;;;;;;4987800;28;20407;-78
2021/07/05 09:03:22;;;;;;;5.30;1.02;;;;;;;;;;4992606;28;20027;-79
2021/07/05 09:06:06;;;;;;;1.65;0.80;;;;;;;;;;4994195;28;20037;-79
2021/07/05 09:08:35;;;;;;;1.85;1.00;;;;;;;;;;4993850;28;20064;-80
2021/07/05 09:11:01;;;;;;;1.35;0.75;;;;;;;;;;4976472;28;20518;-80
2021/07/05 09:13:28;;;;;;;2.40;0.82;;;;;;;;;;4991338;28;20030;-81
2021/07/05 09:15:55;;;;;;;2.67;0.80;;;;;;;;;;5019545;28;20042;-78
2021/07/05 09:18:27;;;;;;;1.63;1.02;;;;;;;;;;5006361;28;20026;-79
2021/07/05 09:20:54;;;;;;;4.35;0.80;;;;;;;;;;4990957;28;20073;-79
2021/07/05 09:23:20;;;;;;;5.20;1.15;;;;;;;;;;4962158;28;20093;-80
2021/07/05 09:25:48;;;;;;;3.53;0.80;;;;;;;;;;4974660;28;20026;-80
2021/07/05 09:28:17;;;;;;;2.33;0.90;;;;;;;;;;4993783;28;20050;-79
2021/07/05 09:30:45;;;;;;;2.08;0.98;;;;;;;;;;4995979;28;20026;-79
2021/07/05 09:33:18;;;;;;;2.60;1.00;;;;;;;;;;4995974;28;20045;-80
2021/07/05 09:35:45;;;;;;;1.80;0.65;;;;;;;;;;4996558;28;20018;-80
2021/07/05 09:38:11;;;;;;;1.83;0.73;;;;;;;;;;4981523;28;20038;-78
2021/07/05 09:40:37;;;;;;;0.98;0.63;;;;;;;;;;4996614;28;20038;-79
2021/07/05 09:43:20;;;;;;;3.15;0.95;;;;;;;;;;4999369;28;20099;-79
2021/07/05 09:45:46;;;;;;;1.25;0.70;;;;;;;;;;5000005;28;20053;-79
2021/07/05 09:48:12;;;;;;;3.15;0.88;;;;;;;;;;4976754;28;20030;-80
2021/07/05 09:50:38;;;;;;;2.10;0.70;;;;;;;;;;4973052;28;20029;-79
2021/07/05 09:53:23;;;;;;;1.65;0.70;;;;;;;;;;4986051;28;20030;-79
2021/07/05 09:55:49;;;;;;;1.77;0.60;;;;;;;;;;4995134;28;20030;-78
2021/07/05 09:58:15;;;;;;;2.55;0.90;;;;;;;;;;4994642;28;20125;-79
2021/07/05 10:00:41;;;;;;;3.65;1.00;;;;;;;;;;4994014;28;20495;-79
2021/07/05 10:03:09;;;;;;;4.43;0.70;;;;;;;;;;4988167;28;20038;-80
2021/07/05 10:05:35;;;;;;;3.67;1.15;;;;;;;;;;4990089;28;20022;-80
2021/07/05 10:08:03;;;;;;;2.95;0.70;;;;;;;;;;4972819;28;20029;-79
2021/07/05 10:10:29;;;;;;;1.17;0.43;;;;;;;;;;4971147;28;20057;-79
2021/07/05 10:12:57;;;;;;;2.10;0.30;;;;;;;;;;4990795;28;20034;-79
2021/07/05 10:15:24;;;;;;;1.55;0.60;;;;;;;;;;5002558;28;20431;-80
2021/07/05 10:17:51;;;;;;;1.52;0.60;;;;;;;;;;5003748;28;20054;-79
2021/07/05 10:20:19;;;;;;;1.48;0.63;;;;;;;;;;4989295;28;20027;-79
2021/07/05 10:22:46;;;;;;;5.32;0.50;;;;;;;;;;4990904;28;20018;-80
2021/07/05 10:25:13;;;;;;;3.75;0.70;;;;;;;;;;4989930;28;20061;-79
2021/07/05 10:27:39;;;;;;;2.88;0.55;;;21.90;99.90;;;;;;4989012;28;20030;-80
2021/07/05 10:30:09;;;;;;;0.60;0.47;;;26.30;99.90;;;;;;4989632;28;20030;-80
2021/07/05 10:32:34;;;;;;;1.98;0.70;;;26.00;99.90;;;;;;4972626;28;20029;-79
2021/07/05 10:35:01;;;;;;;4.90;0.70;;;25.60;99.90;;;;;;4989759;28;20042;-80
2021/07/05 10:37:27;;;;;;;3.80;0.88;;;25.10;99.90;;;;;;4987907;28;20042;-79
2021/07/05 10:39:53;;;;;;;2.83;1.02;;;24.60;99.90;;;;;;4993068;28;20030;-79
2021/07/05 10:42:40;;;;;;;2.58;0.98;;;24.00;99.90;;;;;;4993452;28;20037;-80
2021/07/05 10:45:09;;;;;;;5.45;1.42;;;23.50;99.90;;;;;;4998208;28;20090;-80
2021/07/05 10:47:55;;;;;;;2.33;0.47;;;23.40;99.90;;;;;;5005839;28;20335;-81
2021/07/05 10:50:41;;;;;;;1.48;0.70;;;23.20;99.90;;;;;;4990772;28;20022;-80
2021/07/05 10:53:08;;;;;;;2.00;0.50;;;23.00;99.90;;;;;;5005229;28;20058;-80
2021/07/05 10:55:54;;;;;;;2.33;0.60;;;22.60;99.90;;;;;;4995579;28;20117;-80
2021/07/05 10:58:30;;;;;;;2.25;0.50;;;22.50;99.90;;;;;;4994201;28;20034;-80
2021/07/05 11:01:05;;;;;;;3.03;0.93;;;22.40;99.90;;;;;;4996022;28;20019;-80
2021/07/05 11:03:40;;;;;;;0.70;0.47;;;22.50;99.90;;;;;;5004189;28;20521;-80
2021/07/05 11:06:26;;;;;;;2.80;0.50;;;22.50;99.90;;;;;;4998749;28;20022;-80
2021/07/05 11:08:53;;;;;;;2.28;0.70;;;22.50;99.90;;;;;;4981556;28;20107;-80
2021/07/05 11:11:33;;;;;;;1.30;0.70;;;22.40;99.90;;;;;;5001385;28;20026;-80
2021/07/05 11:14:22;;;;;;;2.35;0.70;;;22.20;99.90;;;;;;4980873;28;20036;-80
2021/07/05 11:16:58;;;;;;;2.42;0.60;;;22.30;99.90;;;;;;5002953;28;20064;-79
2021/07/05 11:19:39;;;;;;;5.18;0.75;;;22.40;99.90;;;;;;5003584;28;20026;-80
2021/07/05 11:22:06;;;;;;;10.95;1.83;;;22.40;99.90;;;;;;4979820;28;20022;-80
2021/07/05 11:24:35;;;;;;;10.70;0.98;;;22.30;99.90;;;;;;5002032;28;20060;-80
2021/07/05 11:27:23;;;;;;;2.83;0.43;;;22.30;99.90;;;;;;4999487;28;20045;-80
2021/07/05 11:29:49;;;;;;;1.08;0.40;;;22.30;99.90;;;;;;5008363;28;20026;-80
2021/07/05 11:32:39;;;;;;;1.27;0.40;;;22.40;99.90;;;;;;5001771;28;20035;-79
2021/07/05 11:35:29;;;;;;;1.52;0.38;;;22.60;99.90;;;;;;4998870;28;20021;-80
2021/07/05 11:38:01;;;;;;;4.82;0.30;;;22.70;99.90;;;;;;5000780;28;20543;-80
2021/07/05 11:40:51;;;;;;;0.57;0.28;;;23.00;99.90;;;;;;4992502;28;20080;-80
2021/07/05 11:43:45;;;;;;;0.88;0.40;;;22.80;99.90;;;;;;4993175;28;20491;-80
2021/07/05 11:46:16;;;;;;;0.57;0.25;;;23.00;99.90;;;;;;5011803;28;20068;-80
2021/07/05 11:48:41;;;;;;;2.17;0.30;;;23.10;99.90;;;;;;5008095;28;20088;-80
2021/07/05 11:51:20;;;;;;;1.90;0.30;;;23.00;99.90;;;;;;4991969;28;20034;-80
2021/07/05 11:53:56;;;;;;;0.88;0.30;;;23.00;99.90;;;;;;4994631;28;20046;-79
2021/07/05 11:56:40;;;;;;;1.30;0.20;;;22.50;99.90;;;;;;4995957;28;20026;-80
2021/07/05 11:59:10;;;;;;;2.47;0.52;;;22.70;99.90;;;;;;4994786;28;20521;-80
2021/07/05 12:01:37;;;;;;;1.15;0.20;;;22.90;99.90;;;;;;4995859;28;20026;-80
2021/07/05 12:04:06;;;;;;;0.80;0.35;;;23.20;99.90;;;;;;4995679;28;20018;-80
2021/07/05 12:06:32;;;;;;;2.58;0.30;;;23.30;99.90;;;;;;4978925;28;20026;-80
2021/07/05 12:09:07;;;;;;;1.75;0.40;;;23.30;99.90;;;;;;4994642;28;20391;-80
2021/07/05 12:11:47;;;;;;;0.73;0.30;;;22.80;99.90;;;;;;4995977;28;20026;-80
2021/07/05 12:14:29;;;;;;;0.65;0.35;;;22.60;99.90;;;;;;4995662;28;20034;-80
2021/07/05 12:17:00;;;;;;;1.27;0.40;;;22.40;99.90;;;;;;4981674;28;20434;-80
2021/07/05 12:19:31;;;;;;;0.37;0.30;;;22.80;99.90;;;;;;4995297;28;20046;-81
2021/07/05 12:22:18;;;;;;;2.65;0.20;;;24.00;99.90;;;;;;4995171;28;20181;-80
2021/07/05 12:24:47;;;;;;;0.40;0.30;;;24.30;99.90;;;;;;4989835;28;20045;-80
2021/07/05 12:27:17;;;;;;;1.23;0.35;;;23.90;99.90;;;;;;4978216;28;20030;-80
2021/07/05 12:29:52;;;;;;;1.15;0.25;;;23.20;99.90;;;;;;4994683;28;20026;-79
2021/07/05 12:32:20;;;;;;;0.75;0.20;;;22.60;99.90;;;;;;4996331;28;20102;-79
2021/07/05 12:34:47;;;;;;;2.72;0.40;;;;;;;;;;4994321;28;20026;-79
2021/07/05 12:37:18;;;;;;;3.20;0.55;;;;;;;;;;4977616;28;20030;-79
2021/07/05 12:39:46;;;;;;;0.55;0.30;;;;;;;;;;4974303;28;20026;-79
2021/07/05 12:42:19;;;;;;;1.27;0.40;;;;;;;;;;4987347;28;20070;-79
2021/07/05 12:44:46;;;;;;;3.08;0.63;;;;;;;;;;5003123;28;20470;-79
2021/07/05 12:47:12;;;;;;;0.52;0.22;;;;;;;;;;5013408;28;20023;-79
2021/07/05 12:49:38;;;;;;;0.88;0.28;;;;;;;;;;4991392;28;20038;-79
2021/07/05 12:52:05;;;;;;;1.13;0.20;;;;;;;;;;4996308;28;20045;-80
2021/07/05 12:54:31;;;;;;;2.13;0.40;;;;;;;;;;4977754;28;20049;-81
2021/07/05 12:57:11;;;;;;;1.85;0.43;;;;;;;;;;4995645;28;20019;-84
2021/07/05 12:59:39;;;;;;;1.83;0.40;;;;;;;;;;4994143;28;20030;-80
2021/07/05 13:02:06;;;;;;;5.63;0.63;;;;;;;;;;4993479;28;20029;-79
2021/07/05 13:04:32;;;;;;;1.25;0.47;;;;;;;;;;4993474;28;20070;-78
2021/07/05 13:07:08;;;;;;;3.10;0.30;;;;;;;;;;4994623;28;20034;-78
2021/07/05 13:09:34;;;;;;;0.90;0.45;;;;;;;;;;4994052;28;20045;-79
2021/07/05 13:12:09;;;;;;;1.85;0.50;;;;;;;;;;4993447;28;20031;-77
2021/07/05 13:14:40;;;;;;;4.10;0.35;;;;;;;;;;4993058;28;20543;-78
2021/07/05 13:17:07;;;;;;;0.75;0.40;;;;;;;;;;4993152;28;20077;-78
2021/07/05 13:19:34;;;;;;;0.30;0.30;;;;;;;;;;4994431;28;20089;-79
2021/07/05 13:22:11;;;;;;;0.57;0.40;;;;;;;;;;4977369;28;20037;-81
2021/07/05 13:24:42;;;;;;;3.60;0.38;;;;;;;;;;4986391;28;20071;-79
2021/07/05 13:27:15;;;;;;;0.60;0.30;;;;;;;;;;4985237;28;20022;-82
2021/07/05 13:29:41;;;;;;;1.70;0.30;;;;;;;;;;4996208;28;20483;-82
2021/07/05 13:32:14;;;;;;;0.73;0.30;;;;;;;;;;4993650;28;20034;-80
2021/07/05 13:34:41;;;;;;;0.73;0.20;;;;;;;;;;4977244;28;20038;-81
2021/07/05 13:37:12;;;;;;;2.25;0.30;;;;;;;;;;4976678;28;20034;-81
2021/07/05 13:39:39;;;;;;;0.43;0.25;;;;;;;;;;4993718;28;20553;-81
2021/07/05 13:42:05;;;;;;;0.35;0.20;;;;;;;;;;4974511;28;20030;-81
2021/07/05 13:44:31;;;;;;;0.38;0.20;;;;;;;;;;4976746;28;20030;-81
2021/07/05 13:47:16;;;;;;;3.47;0.30;;;;;;;;;;4976525;28;20034;-81
2021/07/05 13:49:42;;;;;;;0.93;0.28;;;;;;;;;;4977575;28;20038;-80
2021/07/05 13:52:08;;;;;;;0.28;0.25;;;;;;;;;;4979159;28;20030;-81
2021/07/05 13:54:35;;;;;;;1.08;0.47;;;;;;;;;;4995030;28;20037;-80
2021/07/05 13:57:18;;;;;;;0.63;0.40;;;;;;;;;;4995193;28;20077;-80
2021/07/05 13:59:44;;;;;;;0.32;0.30;;;21.40;99.90;;;;;;4996020;28;20303;-81
2021/07/05 14:02:14;;;;;;;0.55;0.30;;;27.30;99.90;;;;;;4998870;28;20045;-80
2021/07/05 14:04:41;;;;;;;0.50;0.20;;;28.70;99.90;;;;;;5002935;28;20022;-80
2021/07/05 14:07:06;;;;;;;0.68;0.40;;;28.80;98.90;;;;;;5002792;28;20054;-80
2021/07/05 14:09:32;;;;;;;1.85;0.40;;;28.10;99.90;;;;;;4980211;28;20538;-80
2021/07/05 14:11:58;;;;;;;1.13;0.40;;;26.30;99.90;;;;;;4983038;28;20033;-80
2021/07/05 14:14:23;;;;;;;0.57;0.30;;;25.90;99.90;;;;;;5002561;28;20506;-80
2021/07/05 14:16:49;;;;;;;1.45;1.35;;;26.10;99.90;;;;;;4999360;28;20026;-81
2021/07/05 14:19:15;;;;;;;0.95;0.30;;;26.60;99.90;;;;;;4998843;28;20121;-80
2021/07/05 14:21:40;;;;;;;1.95;0.60;;;26.50;99.90;;;;;;4998409;28;20018;-79
2021/07/05 14:24:06;;;;;;;2.20;0.40;;;25.50;99.90;;;;;;4997885;28;20027;-79
2021/07/05 14:26:32;;;;;;;0.75;0.30;;;24.40;99.90;;;;;;4996546;28;20082;-79
2021/07/05 14:28:58;;;;;;;0.50;0.40;;;23.50;99.90;;;;;;4985052;28;20049;-80